Time;durP1;ratioP1;P1;durP2;ratioP2;P2;SDS_P1;SDS_P2;PMS_P1;PMS_P2;Temp;Humidity;BMP_temperature;BMP_pressure;BME280_temperature;BME280_humidity;BME280_pressure;Samples;Min_cycle;Max_cycle;Signal;HPM_P1;HPM_P2
2023/08/13 00:02:08;;;;;;;8.07;2.70;;;20.90;65.60;;;;;;5035062;28;20025;-66
2023/08/13 00:04:34;;;;;;;11.40;2.50;;;20.90;65.50;;;;;;5047575;28;20013;-66
2023/08/13 00:07:00;;;;;;;7.53;2.40;;;20.90;65.50;;;;;;5034895;28;20025;-66
2023/08/13 00:09:26;;;;;;;6.38;2.20;;;20.90;65.50;;;;;;5046776;28;20386;-66
2023/08/13 00:11:53;;;;;;;6.57;2.20;;;20.90;65.40;;;;;;5039413;28;20083;-66
2023/08/13 00:14:19;;;;;;;8.18;2.63;;;20.80;65.40;;;;;;5037045;28;20450;-66
2023/08/13 00:16:45;;;;;;;8.45;2.40;;;20.80;65.50;;;;;;5038887;28;20021;-66
2023/08/13 00:19:11;;;;;;;8.93;2.70;;;20.80;65.60;;;;;;5050157;28;20034;-66
2023/08/13 00:21:36;;;;;;;6.95;2.30;;;20.70;65.60;;;;;;5028642;28;20033;-66
2023/08/13 00:24:03;;;;;;;7.95;2.33;;;20.70;65.70;;;;;;5048829;28;20048;-66
2023/08/13 00:26:28;;;;;;;8.82;2.10;;;20.70;65.70;;;;;;5056847;28;20075;-66
2023/08/13 00:28:54;;;;;;;8.52;2.97;;;20.70;65.80;;;;;;5070204;28;20424;-66
2023/08/13 00:31:21;;;;;;;6.65;2.10;;;20.60;65.80;;;;;;5024158;28;20033;-66
2023/08/13 00:33:47;;;;;;;7.18;2.45;;;20.60;65.90;;;;;;5055966;28;20024;-66
2023/08/13 00:36:12;;;;;;;12.27;2.60;;;20.60;66.10;;;;;;5050035;28;20498;-66
2023/08/13 00:38:39;;;;;;;7.57;2.28;;;20.60;66.20;;;;;;5043453;28;20026;-66
2023/08/13 00:41:05;;;;;;;7.72;2.42;;;20.50;66.30;;;;;;5043254;28;20025;-66
2023/08/13 00:43:31;;;;;;;8.98;2.63;;;20.50;66.40;;;;;;5034250;28;20053;-66
2023/08/13 00:45:57;;;;;;;8.50;3.53;;;20.40;66.50;;;;;;5057708;28;20477;-66
2023/08/13 00:48:23;;;;;;;8.80;2.58;;;20.40;66.50;;;;;;5057698;28;20032;-66
2023/08/13 00:50:50;;;;;;;10.05;2.90;;;20.40;66.60;;;;;;5045976;28;20051;-66
2023/08/13 00:53:17;;;;;;;6.57;2.55;;;20.40;66.80;;;;;;5058330;28;20035;-66
2023/08/13 00:55:43;;;;;;;8.13;2.55;;;20.40;66.80;;;;;;5054015;28;20029;-66
2023/08/13 00:58:09;;;;;;;8.65;2.35;;;20.40;66.80;;;;;;5052601;28;20052;-66
2023/08/13 01:00:34;;;;;;;8.55;2.85;;;20.30;66.90;;;;;;5046796;28;20115;-66
2023/08/13 01:03:00;;;;;;;10.10;2.72;;;20.40;66.80;;;;;;5046027;28;20021;-66
2023/08/13 01:05:41;;;;;;;6.38;2.58;;;20.30;66.70;;;;;;5065534;28;20026;-66
2023/08/13 01:08:32;;;;;;;8.35;2.75;;;20.30;66.80;;;;;;5070834;28;20093;-66
2023/08/13 01:11:05;;;;;;;10.57;2.30;;;20.30;66.80;;;;;;5033304;28;20465;-66
2023/08/13 01:13:38;;;;;;;10.20;2.80;;;20.30;66.90;;;;;;5051715;28;20033;-66
2023/08/13 01:16:05;;;;;;;9.05;2.90;;;20.30;66.90;;;;;;5048475;28;20067;-66
2023/08/13 01:18:33;;;;;;;6.00;2.08;;;20.30;66.90;;;;;;5055957;28;20029;-66
2023/08/13 01:20:58;;;;;;;9.13;3.05;;;20.30;67.10;;;;;;5034890;28;20453;-66
2023/08/13 01:23:24;;;;;;;6.22;2.28;;;20.30;67.20;;;;;;5042939;28;20029;-66
2023/08/13 01:25:58;;;;;;;9.20;2.90;;;20.20;67.10;;;;;;5048317;28;20025;-66
2023/08/13 01:28:32;;;;;;;7.78;2.20;;;20.20;67.40;;;;;;5050352;28;20468;-66
2023/08/13 01:31:04;;;;;;;8.45;2.00;;;20.20;67.10;;;;;;5052304;28;20036;-66
2023/08/13 01:33:35;;;;;;;10.00;3.15;;;20.20;67.10;;;;;;5053249;28;20040;-66
2023/08/13 01:36:04;;;;;;;6.45;2.25;;;20.20;67.10;;;;;;5045213;28;20029;-66
2023/08/13 01:38:31;;;;;;;9.50;2.60;;;20.20;67.20;;;;;;5049960;28;20048;-66
2023/08/13 01:41:00;;;;;;;10.02;2.58;;;20.10;67.10;;;;;;5064000;28;20030;-66
2023/08/13 01:43:26;;;;;;;7.28;2.60;;;20.10;67.20;;;;;;5047443;28;20031;-66
2023/08/13 01:45:52;;;;;;;11.35;2.72;;;20.10;67.40;;;;;;5051279;28;20099;-66
2023/08/13 01:48:18;;;;;;;8.40;2.83;;;20.10;67.40;;;;;;5053119;28;20223;-66
2023/08/13 01:50:44;;;;;;;9.63;2.60;;;20.10;67.40;;;;;;5053367;28;20112;-66
2023/08/13 01:53:10;;;;;;;6.80;2.20;;;20.10;67.50;;;;;;5048428;28;20060;-66
2023/08/13 01:55:35;;;;;;;9.32;2.83;;;20.10;67.50;;;;;;5047129;28;20404;-66
2023/08/13 01:58:01;;;;;;;9.45;2.58;;;20.10;67.50;;;;;;5042296;28;20028;-66
2023/08/13 02:00:27;;;;;;;8.25;2.38;;;20.10;67.60;;;;;;5033410;28;20029;-66
2023/08/13 02:02:55;;;;;;;8.65;2.67;;;20.10;67.70;;;;;;5047371;28;20036;-66
2023/08/13 02:05:21;;;;;;;8.35;2.17;;;20.00;67.60;;;;;;5060790;28;20355;-66
2023/08/13 02:07:47;;;;;;;9.88;2.35;;;20.10;67.70;;;;;;5045638;28;20021;-66
2023/08/13 02:10:13;;;;;;;9.30;2.47;;;20.10;67.70;;;;;;5042054;28;20041;-66
2023/08/13 02:12:39;;;;;;;6.95;2.50;;;20.10;67.70;;;;;;5052083;28;20111;-66
2023/08/13 02:15:05;;;;;;;9.77;2.80;;;20.00;67.60;;;;;;5026542;28;20025;-66
2023/08/13 02:17:31;;;;;;;8.02;2.50;;;20.10;67.70;;;;;;5048138;28;20075;-66
2023/08/13 02:19:57;;;;;;;6.50;1.90;;;20.10;67.70;;;;;;5050058;28;20390;-66
2023/08/13 02:22:23;;;;;;;8.80;2.17;;;20.00;67.70;;;;;;5041866;28;20095;-66
2023/08/13 02:24:49;;;;;;;8.38;2.03;;;20.00;67.80;;;;;;5035586;28;20034;-66
2023/08/13 02:27:14;;;;;;;8.18;2.65;;;20.00;67.90;;;;;;5027239;28;20098;-66
2023/08/13 02:29:40;;;;;;;7.97;2.55;;;20.00;68.00;;;;;;5065133;28;20465;-66
2023/08/13 02:32:06;;;;;;;6.18;2.17;;;19.90;68.80;;;;;;5057768;28;20101;-66
2023/08/13 02:34:33;;;;;;;6.70;2.25;;;19.90;68.10;;;;;;5024831;28;20024;-66
2023/08/13 02:37:00;;;;;;;9.82;2.97;;;20.00;68.20;;;;;;5024114;28;20036;-66
2023/08/13 02:39:26;;;;;;;9.68;2.50;;;19.90;68.20;;;;;;5046905;28;20104;-67
2023/08/13 02:41:51;;;;;;;10.25;2.30;;;19.90;68.20;;;;;;5051557;28;20156;-66
2023/08/13 02:44:17;;;;;;;7.35;2.72;;;19.90;68.30;;;;;;5046116;28;20029;-66
2023/08/13 02:46:43;;;;;;;7.82;2.40;;;19.90;69.00;;;;;;5051665;28;20036;-66
2023/08/13 02:49:10;;;;;;;10.90;2.78;;;19.90;68.40;;;;;;5051384;28;20039;-66
2023/08/13 02:51:36;;;;;;;9.43;2.78;;;19.90;68.40;;;;;;5038198;28;20025;-67
2023/08/13 02:54:02;;;;;;;7.38;2.65;;;19.80;68.40;;;;;;5050125;28;20419;-67
2023/08/13 02:56:28;;;;;;;8.82;2.20;;;19.80;68.60;;;;;;5052972;28;20021;-66
2023/08/13 02:58:53;;;;;;;7.57;2.28;;;19.80;68.70;;;;;;5052677;28;20515;-66
2023/08/13 03:01:19;;;;;;;9.30;2.25;;;19.80;68.70;;;;;;5048033;28;20021;-66
2023/08/13 03:03:48;;;;;;;8.95;2.80;;;19.80;68.70;;;;;;5052413;28;20123;-66
2023/08/13 03:06:15;;;;;;;6.15;2.28;;;19.80;68.70;;;;;;5040173;28;20068;-66
2023/08/13 03:08:40;;;;;;;9.95;2.50;;;19.80;68.80;;;;;;5052043;28;20021;-66
2023/08/13 03:11:06;;;;;;;7.95;2.67;;;19.80;68.80;;;;;;5049738;28;20408;-66
2023/08/13 03:13:32;;;;;;;8.25;2.50;;;19.70;68.90;;;;;;5040901;28;20064;-66
2023/08/13 03:15:58;;;;;;;8.80;2.45;;;19.70;68.90;;;;;;5064867;28;20021;-66
2023/08/13 03:18:24;;;;;;;8.55;2.92;;;19.70;69.00;;;;;;5049099;28;20103;-66
2023/08/13 03:20:52;;;;;;;9.40;2.72;;;19.70;69.10;;;;;;5050011;28;20466;-66
2023/08/13 03:23:18;;;;;;;8.60;2.40;;;19.70;69.20;;;;;;5062521;28;20026;-66
2023/08/13 03:25:43;;;;;;;9.00;2.80;;;19.70;69.20;;;;;;5037101;28;20367;-66
2023/08/13 03:28:09;;;;;;;11.68;2.70;;;19.70;69.30;;;;;;5064690;28;20029;-66
2023/08/13 03:30:36;;;;;;;9.77;2.65;;;19.70;69.40;;;;;;5042100;28;20037;-66
2023/08/13 03:33:02;;;;;;;13.25;3.33;;;19.70;69.50;;;;;;5049367;28;20504;-66
2023/08/13 03:35:28;;;;;;;8.35;2.53;;;19.70;69.60;;;;;;5067677;28;20075;-66
2023/08/13 03:37:55;;;;;;;9.32;2.65;;;19.60;69.60;;;;;;5051023;28;20111;-66
2023/08/13 03:40:21;;;;;;;7.85;2.08;;;19.60;69.70;;;;;;5032193;28;20112;-66
2023/08/13 03:42:46;;;;;;;8.30;2.67;;;19.60;69.80;;;;;;5041013;28;20036;-66
2023/08/13 03:45:12;;;;;;;9.73;3.17;;;19.60;70.00;;;;;;5051802;28;20028;-66
2023/08/13 03:47:38;;;;;;;9.05;2.33;;;19.50;70.10;;;;;;5051150;28;20035;-66
2023/08/13 03:50:04;;;;;;;8.98;2.65;;;19.50;70.20;;;;;;5047605;28;20048;-66
2023/08/13 03:52:30;;;;;;;8.20;2.47;;;19.50;70.40;;;;;;5037158;28;20300;-66
2023/08/13 03:54:56;;;;;;;7.47;2.25;;;19.50;70.60;;;;;;5048147;28;20075;-66
2023/08/13 03:57:22;;;;;;;8.60;2.58;;;19.50;70.60;;;;;;5052652;28;20017;-66
2023/08/13 03:59:47;;;;;;;7.90;2.42;;;19.40;70.70;;;;;;5051560;28;20029;-66
2023/08/13 04:02:14;;;;;;;10.60;2.58;;;19.40;70.70;;;;;;5022671;28;20350;-66
2023/08/13 04:04:40;;;;;;;11.38;2.83;;;19.40;70.90;;;;;;5045080;28;20033;-66
2023/08/13 04:07:06;;;;;;;10.02;2.55;;;19.30;71.00;;;;;;5050908;28;20021;-66
2023/08/13 04:09:32;;;;;;;10.77;2.42;;;19.40;71.20;;;;;;5045931;28;20465;-66
2023/08/13 04:11:59;;;;;;;10.15;2.30;;;19.30;71.20;;;;;;5051080;28;20149;-66
2023/08/13 04:14:25;;;;;;;9.20;2.63;;;19.30;71.30;;;;;;5036943;28;20022;-66
2023/08/13 04:16:51;;;;;;;9.02;2.38;;;19.30;71.40;;;;;;5030028;28;20358;-66
2023/08/13 04:19:17;;;;;;;8.20;2.95;;;19.30;71.50;;;;;;5040349;28;20024;-66
2023/08/13 04:21:42;;;;;;;8.00;2.10;;;19.30;71.50;;;;;;5027803;28;20037;-66
2023/08/13 04:24:10;;;;;;;7.22;2.22;;;19.30;71.60;;;;;;5048908;28;20071;-66
2023/08/13 04:26:36;;;;;;;9.05;2.58;;;19.30;71.70;;;;;;5045308;28;20080;-66
2023/08/13 04:29:04;;;;;;;8.55;3.08;;;19.30;72.50;;;;;;5063231;28;20041;-66
2023/08/13 04:31:29;;;;;;;9.07;2.30;;;19.20;71.80;;;;;;5047573;28;20162;-66
2023/08/13 04:33:55;;;;;;;10.88;2.80;;;19.20;71.90;;;;;;5048816;28;20014;-65
2023/08/13 04:36:21;;;;;;;8.02;2.50;;;19.20;72.00;;;;;;5025319;28;20021;-66
2023/08/13 04:38:46;;;;;;;6.72;2.28;;;19.20;72.10;;;;;;5046367;28;20033;-65
2023/08/13 04:41:12;;;;;;;9.38;2.35;;;19.20;72.00;;;;;;5049845;28;20032;-65
2023/08/13 04:43:44;;;;;;;7.60;2.35;;;19.30;72.10;;;;;;5050524;28;20162;-65
2023/08/13 04:46:10;;;;;;;9.63;2.75;;;19.30;72.10;;;;;;5049843;28;20108;-64
2023/08/13 04:48:45;;;;;;;9.55;2.55;;;19.30;72.70;;;;;;5045976;28;20335;-65
2023/08/13 04:51:13;;;;;;;8.30;2.33;;;19.30;72.10;;;;;;5052692;28;20525;-65
2023/08/13 04:53:39;;;;;;;7.97;2.38;;;19.30;72.10;;;;;;5051814;28;20032;-65
2023/08/13 04:56:08;;;;;;;7.57;2.47;;;19.30;72.00;;;;;;5051182;28;20102;-65
2023/08/13 04:58:35;;;;;;;6.15;2.03;;;19.40;72.10;;;;;;5051822;28;20054;-65
2023/08/13 05:01:11;;;;;;;9.60;2.40;;;19.40;72.00;;;;;;5035741;28;20029;-65
2023/08/13 05:03:39;;;;;;;6.18;2.13;;;19.40;72.10;;;;;;5045332;28;20117;-65
2023/08/13 05:06:05;;;;;;;6.43;2.15;;;19.50;72.20;;;;;;5048962;28;20120;-66
2023/08/13 05:08:31;;;;;;;8.43;2.25;;;19.50;72.10;;;;;;5055429;28;20116;-66
2023/08/13 05:10:57;;;;;;;7.60;2.45;;;19.50;72.10;;;;;;5057021;28;20453;-66
2023/08/13 05:13:23;;;;;;;6.53;2.08;;;19.50;72.80;;;;;;5056554;28;20029;-66
2023/08/13 05:15:49;;;;;;;8.25;1.85;;;19.50;72.20;;;;;;5055895;28;20116;-66
2023/08/13 05:18:15;;;;;;;9.68;2.55;;;19.60;72.20;;;;;;5050761;28;20057;-65
2023/08/13 05:20:43;;;;;;;6.10;1.83;;;19.60;72.10;;;;;;5045515;28;20094;-66
2023/08/13 05:23:09;;;;;;;8.10;2.53;;;19.60;72.00;;;;;;5052689;28;20039;-66
2023/08/13 05:25:38;;;;;;;7.88;2.55;;;19.60;71.90;;;;;;5048008;28;20361;-66
2023/08/13 05:28:08;;;;;;;5.57;2.00;;;19.70;71.90;;;;;;5054591;28;20083;-66
2023/08/13 05:30:37;;;;;;;7.10;2.40;;;19.70;71.90;;;;;;5056634;28;20028;-66
2023/08/13 05:33:03;;;;;;;7.43;2.67;;;19.80;71.90;;;;;;5056274;28;20024;-66
2023/08/13 05:35:29;;;;;;;6.10;2.10;;;19.80;71.80;;;;;;5055621;28;20056;-66
2023/08/13 05:37:56;;;;;;;6.97;2.05;;;19.90;72.30;;;;;;5031279;28;20040;-66
2023/08/13 05:40:22;;;;;;;8.93;2.30;;;19.90;71.60;;;;;;5050294;28;20025;-66
2023/08/13 05:42:49;;;;;;;8.48;2.78;;;20.00;71.50;;;;;;5029684;28;20460;-66
2023/08/13 05:45:14;;;;;;;9.35;2.33;;;20.10;71.20;;;;;;5052588;28;20032;-66
2023/08/13 05:47:41;;;;;;;8.82;2.58;;;20.30;71.10;;;;;;5047775;28;20159;-66
2023/08/13 05:50:07;;;;;;;6.93;1.77;;;20.30;70.90;;;;;;5047519;28;20025;-65
2023/08/13 05:52:33;;;;;;;10.65;2.80;;;20.30;70.90;;;;;;5056698;28;20028;-65
2023/08/13 05:54:59;;;;;;;9.45;2.47;;;20.30;71.00;;;;;;5049011;28;20044;-66
2023/08/13 05:57:25;;;;;;;8.10;2.53;;;20.30;70.90;;;;;;5048850;28;20025;-66
2023/08/13 05:59:50;;;;;;;10.20;2.35;;;20.40;70.80;;;;;;5049521;28;20025;-66
2023/08/13 06:02:16;;;;;;;9.13;2.67;;;20.40;70.70;;;;;;5047349;28;20385;-66
2023/08/13 06:04:42;;;;;;;16.70;3.20;;;20.40;70.60;;;;;;5050853;28;20021;-66
2023/08/13 06:07:08;;;;;;;10.48;2.83;;;20.40;70.50;;;;;;5053792;28;20465;-66
2023/08/13 06:09:34;;;;;;;10.32;2.35;;;20.40;70.30;;;;;;5047016;28;20025;-65
2023/08/13 06:12:00;;;;;;;7.43;2.33;;;20.50;70.00;;;;;;5052004;28;20033;-65
2023/08/13 06:14:26;;;;;;;9.70;2.70;;;20.60;69.80;;;;;;5049992;28;20028;-66
2023/08/13 06:16:52;;;;;;;11.52;2.60;;;20.70;69.60;;;;;;5051622;28;20025;-66
2023/08/13 06:19:18;;;;;;;8.40;2.88;;;20.60;69.50;;;;;;5039837;28;20024;-65
2023/08/13 06:21:44;;;;;;;10.13;2.80;;;20.70;69.50;;;;;;5051962;28;20476;-67
2023/08/13 06:24:09;;;;;;;11.45;2.95;;;20.70;69.50;;;;;;5050562;28;20029;-66
2023/08/13 06:26:36;;;;;;;13.55;3.22;;;20.70;69.40;;;;;;5048343;28;20064;-67
2023/08/13 06:29:02;;;;;;;9.07;2.88;;;20.80;69.30;;;;;;5043510;28;20442;-67
2023/08/13 06:31:28;;;;;;;8.27;2.30;;;20.90;69.00;;;;;;5034337;28;20110;-67
2023/08/13 06:33:54;;;;;;;7.97;2.55;;;21.10;68.90;;;;;;5053007;28;20021;-67
2023/08/13 06:36:20;;;;;;;9.82;2.67;;;21.20;68.60;;;;;;5047953;28;21924;-66
2023/08/13 06:38:46;;;;;;;8.23;2.55;;;21.30;68.40;;;;;;5048844;28;20028;-67
2023/08/13 06:41:11;;;;;;;10.00;2.88;;;21.40;67.90;;;;;;5045907;28;20098;-67
2023/08/13 06:43:37;;;;;;;7.78;2.55;;;21.50;67.60;;;;;;5044207;28;20116;-66
2023/08/13 06:46:03;;;;;;;9.70;2.78;;;21.60;67.40;;;;;;5051397;28;20063;-67
2023/08/13 06:48:33;;;;;;;11.73;2.60;;;21.70;67.10;;;;;;5055358;28;20039;-67
2023/08/13 06:50:59;;;;;;;8.15;2.53;;;21.80;67.70;;;;;;5060543;28;20461;-67
2023/08/13 06:53:26;;;;;;;11.18;2.60;;;22.00;66.80;;;;;;5045385;28;20326;-65
2023/08/13 06:55:52;;;;;;;8.18;2.60;;;22.10;66.50;;;;;;5050263;28;20036;-66
2023/08/13 06:58:18;;;;;;;10.50;2.60;;;22.30;66.30;;;;;;5033565;28;20019;-65
2023/08/13 07:00:45;;;;;;;8.02;2.65;;;22.40;66.00;;;;;;5051544;28;20028;-66
2023/08/13 07:03:11;;;;;;;8.48;2.33;;;22.60;65.40;;;;;;5053401;28;20033;-66
2023/08/13 07:05:38;;;;;;;10.07;2.78;;;22.80;64.90;;;;;;5052854;28;20065;-66
2023/08/13 07:08:07;;;;;;;7.25;2.58;;;22.90;64.70;;;;;;5052357;28;20029;-65
2023/08/13 07:10:33;;;;;;;9.05;2.47;;;23.00;64.40;;;;;;5053243;28;20037;-66
2023/08/13 07:12:59;;;;;;;8.77;2.92;;;23.20;64.10;;;;;;5044038;28;20090;-66
2023/08/13 07:15:25;;;;;;;8.95;2.67;;;23.20;63.80;;;;;;5043809;28;20107;-66
2023/08/13 07:17:52;;;;;;;8.93;2.67;;;23.30;63.80;;;;;;5048720;28;20029;-66
2023/08/13 07:20:18;;;;;;;7.40;2.40;;;23.50;63.50;;;;;;5047427;28;20111;-66
2023/08/13 07:22:45;;;;;;;8.93;2.72;;;23.60;63.30;;;;;;5034337;28;20160;-66
2023/08/13 07:25:12;;;;;;;8.93;2.78;;;23.60;63.10;;;;;;5050714;28;20024;-66
2023/08/13 07:27:39;;;;;;;8.43;2.70;;;23.70;62.70;;;;;;5055331;28;20029;-66
2023/08/13 07:30:11;;;;;;;6.45;2.03;;;23.90;62.50;;;;;;5053631;28;20034;-66
2023/08/13 07:32:40;;;;;;;10.93;2.58;;;24.00;62.20;;;;;;5024504;28;20025;-66
2023/08/13 07:35:06;;;;;;;8.52;2.38;;;24.10;61.90;;;;;;5054177;28;20110;-66
2023/08/13 07:37:36;;;;;;;6.18;1.98;;;24.20;61.60;;;;;;5054122;28;20021;-66
2023/08/13 07:40:07;;;;;;;6.43;2.10;;;24.20;61.50;;;;;;5047173;28;20120;-66
2023/08/13 07:42:36;;;;;;;;;;;24.10;61.50;;;;;;5030936;28;20021;-66
2023/08/13 07:45:05;;;;;;;6.72;2.03;;;24.00;62.00;;;;;;5046473;28;20258;-66
2023/08/13 07:47:31;;;;;;;8.23;1.85;;;23.80;62.30;;;;;;5050453;28;20068;-66
2023/08/13 07:49:57;;;;;;;7.90;2.03;;;23.70;62.50;;;;;;5044900;28;20502;-67
2023/08/13 07:52:23;;;;;;;9.25;1.95;;;23.60;62.60;;;;;;5040693;28;20025;-66
2023/08/13 07:54:48;;;;;;;7.45;2.05;;;23.60;62.70;;;;;;5050225;28;20099;-66
2023/08/13 07:57:14;;;;;;;8.15;2.13;;;23.70;62.70;;;;;;5046602;28;20029;-66
2023/08/13 07:59:40;;;;;;;8.07;1.85;;;23.90;62.30;;;;;;5049001;28;20029;-67
2023/08/13 08:02:06;;;;;;;9.13;2.00;;;24.20;62.00;;;;;;5047473;28;20040;-66
2023/08/13 08:04:31;;;;;;;7.05;1.85;;;24.40;61.60;;;;;;5041737;28;20111;-67
2023/08/13 08:06:57;;;;;;;7.88;2.10;;;24.50;61.20;;;;;;5049102;28;20394;-66
2023/08/13 08:09:23;;;;;;;9.77;2.05;;;24.70;61.00;;;;;;5048985;28;20342;-66
2023/08/13 08:11:49;;;;;;;7.40;1.80;;;24.70;60.80;;;;;;5046523;28;20051;-67
2023/08/13 08:14:14;;;;;;;8.73;2.33;;;24.80;60.80;;;;;;5050187;28;20025;-67
2023/08/13 08:16:40;;;;;;;7.25;1.90;;;24.80;60.80;;;;;;5044440;28;20025;-67
2023/08/13 08:19:06;;;;;;;5.20;1.75;;;25.00;60.70;;;;;;5048619;28;20058;-66
2023/08/13 08:21:32;;;;;;;4.43;1.40;;;25.20;60.20;;;;;;5048789;28;20899;-66
2023/08/13 08:24:00;;;;;;;6.60;1.75;;;25.50;59.80;;;;;;5024890;28;20025;-67
2023/08/13 08:26:28;;;;;;;7.25;2.10;;;25.60;59.30;;;;;;5046213;28;20045;-66
2023/08/13 08:28:54;;;;;;;7.18;2.20;;;25.70;59.10;;;;;;5050320;28;20098;-66
2023/08/13 08:31:20;;;;;;;8.63;2.05;;;25.90;59.00;;;;;;5044156;28;20028;-66
2023/08/13 08:33:45;;;;;;;8.68;1.88;;;26.00;58.80;;;;;;5048846;28;20070;-67
2023/08/13 08:36:11;;;;;;;8.38;1.98;;;26.00;58.70;;;;;;5045500;28;20055;-67
2023/08/13 08:38:37;;;;;;;6.20;1.92;;;26.00;58.70;;;;;;5043145;28;20028;-66
2023/08/13 08:41:03;;;;;;;9.75;2.30;;;25.80;58.70;;;;;;5052662;28;20404;-67
2023/08/13 08:43:31;;;;;;;7.38;1.63;;;25.70;58.90;;;;;;5056254;28;20040;-66
2023/08/13 08:45:58;;;;;;;7.90;1.85;;;25.60;59.00;;;;;;5054247;28;20404;-67
2023/08/13 08:48:31;;;;;;;7.88;2.08;;;25.60;59.20;;;;;;5049964;28;20120;-66
2023/08/13 08:50:57;;;;;;;6.30;2.00;;;25.70;59.10;;;;;;5047303;28;20079;-66
2023/08/13 08:53:25;;;;;;;9.38;2.00;;;25.80;58.90;;;;;;5052335;28;20017;-66
2023/08/13 08:55:52;;;;;;;8.15;1.80;;;26.00;58.60;;;;;;5025274;28;20025;-67
2023/08/13 08:58:18;;;;;;;9.40;2.33;;;26.20;58.30;;;;;;5052146;28;20044;-66
2023/08/13 09:00:44;;;;;;;5.57;1.70;;;26.30;58.00;;;;;;5054270;28;20048;-66
2023/08/13 09:03:10;;;;;;;4.70;1.52;;;26.20;57.90;;;;;;5054140;28;20028;-66
2023/08/13 09:05:39;;;;;;;7.13;2.08;;;26.20;57.90;;;;;;5054232;28;20159;-66
2023/08/13 09:08:14;;;;;;;6.82;2.00;;;26.20;58.00;;;;;;5056673;28;20028;-66
2023/08/13 09:10:44;;;;;;;6.90;1.92;;;26.20;57.90;;;;;;5052093;28;20029;-66
2023/08/13 09:13:09;;;;;;;8.73;1.77;;;26.30;57.90;;;;;;5051974;28;20029;-67
2023/08/13 09:15:49;;;;;;;10.00;2.10;;;26.20;57.70;;;;;;5053329;28;20021;-66
2023/08/13 09:18:15;;;;;;;10.05;2.22;;;26.20;57.90;;;;;;5053206;28;20377;-66
2023/08/13 09:20:45;;;;;;;7.40;2.30;;;26.00;57.80;;;;;;5051809;28;20037;-66
2023/08/13 09:23:21;;;;;;;6.63;1.83;;;25.90;58.00;;;;;;5047276;28;20025;-67
2023/08/13 09:25:54;;;;;;;8.40;2.05;;;25.80;58.20;;;;;;5047965;28;20082;-66
2023/08/13 09:28:20;;;;;;;7.28;1.98;;;25.70;58.40;;;;;;5031882;28;20048;-66
2023/08/13 09:30:46;;;;;;;9.27;2.17;;;25.60;58.30;;;;;;5053579;28;20028;-66
2023/08/13 09:33:14;;;;;;;6.03;2.00;;;25.60;58.20;;;;;;5051893;28;20021;-66
2023/08/13 09:35:44;;;;;;;7.30;1.80;;;25.50;58.10;;;;;;5053574;28;20044;-66
2023/08/13 09:38:10;;;;;;;12.45;1.98;;;25.50;58.10;;;;;;5048970;28;20017;-66
2023/08/13 09:40:36;;;;;;;7.43;1.85;;;25.60;58.30;;;;;;5054349;28;20028;-66
2023/08/13 09:43:06;;;;;;;7.28;2.00;;;25.50;58.30;;;;;;5050853;28;20039;-66
2023/08/13 09:45:33;;;;;;;7.15;2.17;;;25.50;58.10;;;;;;5055225;28;20040;-66
2023/08/13 09:48:06;;;;;;;5.80;1.73;;;25.40;57.80;;;;;;5047717;28;20121;-66
2023/08/13 09:50:40;;;;;;;6.53;1.90;;;25.30;57.50;;;;;;5052107;28;20094;-66
2023/08/13 09:53:13;;;;;;;7.72;2.28;;;25.30;57.40;;;;;;5052664;28;20024;-67
2023/08/13 09:55:43;;;;;;;7.35;2.22;;;25.30;57.60;;;;;;5049144;28;20052;-66
2023/08/13 09:58:14;;;;;;;7.20;2.25;;;25.30;57.70;;;;;;5050796;28;20075;-66
2023/08/13 10:00:40;;;;;;;9.32;2.10;;;25.30;58.00;;;;;;5056594;28;20457;-66
2023/08/13 10:03:06;;;;;;;6.63;2.10;;;25.30;57.80;;;;;;5049596;28;20029;-67
2023/08/13 10:05:32;;;;;;;9.27;1.92;;;25.30;57.70;;;;;;5047231;28;20127;-66
2023/08/13 10:07:59;;;;;;;6.90;2.30;;;25.20;57.60;;;;;;5055260;28;20063;-66
2023/08/13 10:10:26;;;;;;;7.72;2.47;;;25.20;57.60;;;;;;5059663;28;20443;-66
2023/08/13 10:12:52;;;;;;;9.43;2.58;;;25.20;57.50;;;;;;5051143;28;20036;-67
2023/08/13 10:15:20;;;;;;;7.18;2.25;;;25.20;57.30;;;;;;5051146;28;20119;-66
2023/08/13 10:17:46;;;;;;;7.15;1.98;;;25.10;57.10;;;;;;5052465;28;20029;-67
2023/08/13 10:20:12;;;;;;;5.10;1.70;;;25.20;57.20;;;;;;5052542;28;20033;-66
2023/08/13 10:22:39;;;;;;;5.88;1.80;;;25.20;57.20;;;;;;5067318;28;20036;-67
2023/08/13 10:25:07;;;;;;;6.93;1.88;;;25.30;57.40;;;;;;5049660;28;20025;-66
2023/08/13 10:27:42;;;;;;;7.35;1.88;;;25.40;58.20;;;;;;5060943;28;20091;-67
2023/08/13 10:30:12;;;;;;;5.28;1.75;;;25.50;57.20;;;;;;5066431;28;20173;-66
2023/08/13 10:32:59;;;;;;;6.45;1.98;;;25.50;57.70;;;;;;5030596;28;20021;-66
2023/08/13 10:35:38;;;;;;;6.60;1.63;;;25.60;57.20;;;;;;5067596;28;20057;-66
2023/08/13 10:38:05;;;;;;;7.95;1.80;;;25.80;56.70;;;;;;5049867;28;20040;-66
2023/08/13 10:40:31;;;;;;;7.55;1.80;;;25.90;56.60;;;;;;5052103;28;20086;-66
2023/08/13 10:42:58;;;;;;;6.47;1.98;;;25.90;56.50;;;;;;5048626;28;20032;-67
2023/08/13 10:45:35;;;;;;;7.78;1.88;;;25.80;56.60;;;;;;5038536;28;20037;-67
2023/08/13 10:48:06;;;;;;;7.40;1.83;;;25.80;56.70;;;;;;5052392;28;20075;-66
2023/08/13 10:50:42;;;;;;;7.10;2.08;;;25.80;56.70;;;;;;5052322;28;20041;-67
2023/08/13 10:53:18;;;;;;;9.55;1.80;;;25.80;56.70;;;;;;5051126;28;20029;-67
2023/08/13 10:55:51;;;;;;;6.97;1.48;;;25.80;56.60;;;;;;5051183;28;20064;-67
2023/08/13 10:58:30;;;;;;;5.65;1.98;;;25.80;56.60;;;;;;5045254;28;20526;-64
2023/08/13 11:01:18;;;;;;;7.63;2.10;;;25.90;56.80;;;;;;5052859;28;20025;-67
2023/08/13 11:03:45;;;;;;;10.98;1.95;;;25.90;56.40;;;;;;5044642;28;20021;-67
2023/08/13 11:06:11;;;;;;;5.45;1.75;;;25.90;56.70;;;;;;5029387;28;20029;-67
2023/08/13 11:08:42;;;;;;;8.20;1.95;;;25.90;56.90;;;;;;5046524;28;20163;-67
2023/08/13 11:11:09;;;;;;;7.07;2.35;;;25.80;56.80;;;;;;5050775;28;20021;-66
2023/08/13 11:13:36;;;;;;;8.57;2.25;;;25.60;56.90;;;;;;5031802;28;20370;-67
2023/08/13 11:16:01;;;;;;;7.13;2.05;;;25.40;57.20;;;;;;5041396;28;20116;-66
2023/08/13 11:18:27;;;;;;;10.93;2.85;;;25.20;57.70;;;;;;5026731;28;20567;-66
2023/08/13 11:20:54;;;;;;;10.05;2.15;;;25.10;58.20;;;;;;5050290;28;20135;-66
2023/08/13 11:23:22;;;;;;;8.07;2.33;;;25.00;58.60;;;;;;5048095;28;20048;-66
2023/08/13 11:25:48;;;;;;;5.78;1.60;;;25.00;58.70;;;;;;5033598;28;20033;-67
2023/08/13 11:28:27;;;;;;;8.82;2.25;;;25.00;58.40;;;;;;5042570;28;20048;-66
2023/08/13 11:30:55;;;;;;;5.82;1.67;;;24.90;58.20;;;;;;5044865;28;20028;-66
2023/08/13 11:33:21;;;;;;;6.88;2.15;;;25.00;57.90;;;;;;5040589;28;20147;-67
2023/08/13 11:35:47;;;;;;;7.30;1.58;;;25.20;57.60;;;;;;5043884;28;20024;-66
2023/08/13 11:38:13;;;;;;;4.90;1.70;;;25.40;57.30;;;;;;5043314;28;20033;-66
2023/08/13 11:40:40;;;;;;;4.65;1.98;;;25.50;57.10;;;;;;5044387;28;20075;-67
2023/08/13 11:43:09;;;;;;;5.32;2.17;;;25.50;57.20;;;;;;5046584;28;20041;-66
2023/08/13 11:45:36;;;;;;;6.60;2.00;;;25.50;56.90;;;;;;5046586;28;20507;-67
2023/08/13 11:48:20;;;;;;;7.95;1.98;;;25.50;56.90;;;;;;5046001;28;20358;-67
2023/08/13 11:50:55;;;;;;;7.90;2.20;;;25.40;57.40;;;;;;5050093;28;20051;-66
2023/08/13 11:53:21;;;;;;;5.60;1.60;;;25.30;57.40;;;;;;5051817;28;20331;-66
2023/08/13 11:55:49;;;;;;;6.72;1.80;;;25.30;57.70;;;;;;5051562;28;20044;-67
2023/08/13 11:58:19;;;;;;;7.13;2.00;;;25.40;57.80;;;;;;5048438;28;20063;-66
2023/08/13 12:00:47;;;;;;;7.10;1.97;;;25.30;57.20;;;;;;5041912;28;20049;-66
2023/08/13 12:03:14;;;;;;;6.05;1.80;;;25.20;57.00;;;;;;5049696;28;20593;-67
2023/08/13 12:05:41;;;;;;;6.13;1.85;;;25.20;56.70;;;;;;5049609;28;20498;-67
2023/08/13 12:08:09;;;;;;;7.15;1.98;;;25.10;56.60;;;;;;5050228;28;20446;-66
2023/08/13 12:10:36;;;;;;;5.47;1.52;;;25.10;56.50;;;;;;5035721;28;20028;-66
2023/08/13 12:13:02;;;;;;;6.35;2.00;;;25.20;56.50;;;;;;5046533;28;20343;-67
2023/08/13 12:15:29;;;;;;;6.95;1.77;;;25.30;56.60;;;;;;5050653;28;20116;-66
2023/08/13 12:17:59;;;;;;;6.00;1.85;;;25.50;56.40;;;;;;5043687;28;20025;-66
2023/08/13 12:20:26;;;;;;;6.95;1.95;;;25.50;56.00;;;;;;5050438;28;20040;-66
2023/08/13 12:22:51;;;;;;;6.10;2.05;;;25.60;56.30;;;;;;5043456;28;20116;-66
2023/08/13 12:25:19;;;;;;;6.22;1.90;;;25.70;56.10;;;;;;5048188;28;20113;-67
2023/08/13 12:27:46;;;;;;;7.35;2.03;;;25.80;55.90;;;;;;5048478;28;20041;-66
2023/08/13 12:30:13;;;;;;;8.05;1.98;;;25.80;55.60;;;;;;5048786;28;20041;-66
2023/08/13 12:32:39;;;;;;;6.35;2.03;;;25.90;55.70;;;;;;5051423;28;20032;-66
2023/08/13 12:35:08;;;;;;;6.68;1.50;;;25.90;55.50;;;;;;5050205;28;20029;-67
2023/08/13 12:37:34;;;;;;;7.18;2.15;;;25.80;55.30;;;;;;5039897;28;20055;-70
2023/08/13 12:40:00;;;;;;;6.90;2.33;;;25.70;55.30;;;;;;5046526;28;20033;-68
2023/08/13 12:42:26;;;;;;;8.48;2.58;;;25.70;55.30;;;;;;5048148;28;20025;-69
2023/08/13 12:44:51;;;;;;;9.82;2.00;;;25.60;55.30;;;;;;5043681;28;20029;-69
2023/08/13 12:47:17;;;;;;;5.70;2.00;;;25.50;55.40;;;;;;5046534;28;20020;-68